Time;durP1;ratioP1;P1;durP2;ratioP2;P2;SDS_P1;SDS_P2;PMS_P1;PMS_P2;Temp;Humidity;BMP_temperature;BMP_pressure;BME280_temperature;BME280_humidity;BME280_pressure;Samples;Min_cycle;Max_cycle;Signal;HPM_P1;HPM_P2
2023/05/05 00:01:22;;;;;;;5.10;4.20;;;11.10;71.00;;;;;;5114210;28;20448;-65
2023/05/05 00:03:49;;;;;;;6.60;4.37;;;11.10;71.30;;;;;;5113582;28;20607;-65
2023/05/05 00:06:17;;;;;;;6.73;4.20;;;11.10;71.50;;;;;;5113642;28;20471;-65
2023/05/05 00:08:45;;;;;;;9.30;4.13;;;11.00;71.80;;;;;;5113689;28;20524;-65
2023/05/05 00:11:11;;;;;;;5.23;4.73;;;11.00;72.10;;;;;;5113543;28;20442;-65
2023/05/05 00:13:38;;;;;;;7.60;4.50;;;10.90;72.60;;;;;;5113915;28;20469;-66
2023/05/05 00:16:05;;;;;;;6.07;3.77;;;10.90;72.90;;;;;;5113349;28;20485;-65
2023/05/05 00:18:32;;;;;;;4.67;4.27;;;10.90;73.40;;;;;;5113475;28;20444;-65
2023/05/05 00:20:59;;;;;;;5.10;3.47;;;10.90;73.80;;;;;;5113490;28;20437;-66
2023/05/05 00:23:27;;;;;;;7.57;4.30;;;10.80;74.00;;;;;;5113381;28;20531;-65
2023/05/05 00:25:54;;;;;;;6.73;4.03;;;10.80;75.20;;;;;;5112931;28;21012;-65
2023/05/05 00:28:21;;;;;;;6.93;4.27;;;10.80;75.00;;;;;;5117373;28;20808;-66
2023/05/05 00:30:48;;;;;;;8.37;4.60;;;10.80;75.30;;;;;;5117633;28;20786;-66
2023/05/05 00:33:15;;;;;;;5.33;4.33;;;10.70;75.50;;;;;;5117602;28;20468;-66
2023/05/05 00:35:42;;;;;;;7.40;3.90;;;10.70;76.00;;;;;;5117307;28;20518;-66
2023/05/05 00:38:09;;;;;;;4.73;4.33;;;10.70;76.60;;;;;;5117556;28;20449;-66
2023/05/05 00:40:37;;;;;;;6.80;4.50;;;10.70;77.20;;;;;;5117331;28;20441;-66
2023/05/05 00:43:04;;;;;;;4.87;4.30;;;10.60;77.70;;;;;;5117154;28;20467;-65
2023/05/05 00:45:31;;;;;;;6.10;4.43;;;10.60;78.20;;;;;;5117285;28;20834;-65
2023/05/05 00:47:59;;;;;;;6.43;5.00;;;10.60;78.50;;;;;;5117056;28;20500;-65
2023/05/05 00:50:29;;;;;;;8.37;5.00;;;10.60;79.20;;;;;;5117065;28;20444;-65
2023/05/05 00:52:58;;;;;;;7.83;4.77;;;10.60;80.00;;;;;;5117159;28;20441;-65
2023/05/05 00:55:25;;;;;;;6.03;5.37;;;10.50;80.40;;;;;;5117059;28;20465;-65
2023/05/05 00:57:54;;;;;;;7.35;4.75;;;10.50;80.80;;;;;;5116964;28;20986;-65
2023/05/05 01:00:21;;;;;;;5.50;4.27;;;10.50;81.30;;;;;;5117709;28;20211;-66
2023/05/05 01:02:47;;;;;;;5.47;4.70;;;10.50;81.90;;;;;;5116989;28;20448;-65
2023/05/05 01:05:15;;;;;;;10.20;5.00;;;10.50;82.20;;;;;;5116750;28;20461;-65
2023/05/05 01:07:55;;;;;;;5.23;4.73;;;10.40;82.50;;;;;;5117128;28;20512;-65
2023/05/05 01:10:28;;;;;;;4.82;4.43;;;10.40;83.30;;;;;;5116842;28;20520;-65
2023/05/05 01:13:05;;;;;;;4.73;4.30;;;10.30;83.70;;;;;;5117222;28;20196;-65
2023/05/05 01:15:34;;;;;;;6.13;4.50;;;10.30;84.20;;;;;;5116661;28;20472;-65
2023/05/05 01:18:09;;;;;;;6.83;4.87;;;10.30;84.90;;;;;;5116415;28;20235;-65
2023/05/05 01:20:44;;;;;;;8.37;4.40;;;10.20;85.50;;;;;;5116814;28;20429;-65
2023/05/05 01:23:18;;;;;;;9.20;4.50;;;10.20;86.30;;;;;;5116121;28;20425;-65
2023/05/05 01:26:18;;;;;;;4.95;4.47;;;10.20;87.40;;;;;;5116069;28;20253;-65
2023/05/05 01:29:02;;;;;;;5.23;4.73;;;10.10;87.60;;;;;;5116204;28;20276;-65
2023/05/05 01:31:42;;;;;;;5.95;4.70;;;10.10;88.50;;;;;;5116310;28;20426;-65
2023/05/05 01:34:12;;;;;;;8.10;5.03;;;10.10;89.00;;;;;;5115888;28;20199;-65
2023/05/05 01:36:42;;;;;;;11.57;5.47;;;10.00;89.50;;;;;;5115703;28;20586;-65
2023/05/05 01:39:12;;;;;;;7.20;5.00;;;10.00;89.90;;;;;;5115341;28;20202;-65
2023/05/05 01:41:42;;;;;;;9.43;4.65;;;10.00;90.20;;;;;;5115889;28;20188;-65
2023/05/05 01:44:11;;;;;;;7.25;5.00;;;10.00;90.30;;;;;;5115845;28;20200;-65
2023/05/05 01:46:39;;;;;;;6.55;5.00;;;10.00;90.70;;;;;;5115996;28;20544;-65
2023/05/05 01:49:08;;;;;;;6.07;5.47;;;10.00;91.00;;;;;;5116727;28;20207;-65
2023/05/05 01:51:36;;;;;;;5.53;4.63;;;10.00;91.20;;;;;;5115851;28;20210;-65
2023/05/05 01:54:06;;;;;;;5.90;5.25;;;10.00;91.30;;;;;;5115673;28;20573;-66
2023/05/05 01:56:34;;;;;;;5.90;4.80;;;10.10;91.40;;;;;;5115986;28;20247;-65
2023/05/05 01:59:02;;;;;;;5.40;4.68;;;10.10;91.50;;;;;;5115417;28;20700;-65
2023/05/05 02:01:30;;;;;;;5.85;4.85;;;10.00;91.70;;;;;;5115266;28;20688;-65
2023/05/05 02:03:59;;;;;;;10.32;4.45;;;10.00;91.90;;;;;;5115616;28;20295;-65
2023/05/05 02:06:29;;;;;;;7.00;5.10;;;10.00;92.00;;;;;;5115493;28;20212;-65
2023/05/05 02:08:58;;;;;;;5.87;4.60;;;10.00;92.30;;;;;;5115717;28;20204;-65
2023/05/05 02:11:26;;;;;;;6.35;4.60;;;10.00;92.50;;;;;;5115345;28;21000;-65
2023/05/05 02:13:54;;;;;;;4.90;4.50;;;10.00;92.90;;;;;;5115383;28;20200;-65
2023/05/05 02:16:22;;;;;;;7.43;5.27;;;10.00;93.10;;;;;;5115224;28;20226;-65
2023/05/05 02:18:49;;;;;;;8.02;4.90;;;10.00;93.40;;;;;;5115320;28;20442;-65
2023/05/05 02:21:18;;;;;;;6.95;5.18;;;9.90;94.20;;;;;;5115248;28;20203;-65
2023/05/05 02:23:50;;;;;;;6.68;4.65;;;9.90;94.30;;;;;;5114917;28;20253;-65
2023/05/05 02:26:19;;;;;;;7.40;5.10;;;9.90;94.70;;;;;;5114729;28;20263;-65
2023/05/05 02:28:51;;;;;;;6.38;5.80;;;9.80;94.80;;;;;;5114850;28;20215;-66
2023/05/05 02:31:21;;;;;;;6.32;4.80;;;9.80;95.10;;;;;;5115130;28;20183;-63
2023/05/05 02:33:50;;;;;;;6.28;4.70;;;9.80;95.40;;;;;;5116096;28;20192;-65
2023/05/05 02:36:22;;;;;;;8.75;5.40;;;9.70;95.70;;;;;;5114536;28;20740;-65
2023/05/05 02:38:52;;;;;;;6.20;5.43;;;9.70;96.10;;;;;;5115058;28;20194;-65
2023/05/05 02:41:21;;;;;;;6.57;4.78;;;9.70;96.60;;;;;;5114940;28;20558;-65
2023/05/05 02:43:49;;;;;;;6.72;5.45;;;9.70;96.80;;;;;;5114702;28;20202;-65
2023/05/05 02:46:16;;;;;;;7.50;4.97;;;9.60;96.80;;;;;;5114777;28;20230;-65
2023/05/05 02:48:43;;;;;;;12.48;5.55;;;9.60;97.00;;;;;;5114945;28;20195;-65
2023/05/05 02:51:10;;;;;;;10.23;4.75;;;9.60;97.30;;;;;;5113526;28;20196;-65
2023/05/05 02:53:39;;;;;;;11.57;5.38;;;9.60;97.40;;;;;;5114678;28;20263;-65
2023/05/05 02:56:17;;;;;;;7.55;4.47;;;9.60;97.70;;;;;;5114441;28;20220;-64
2023/05/05 02:58:51;;;;;;;5.82;5.22;;;9.60;97.90;;;;;;5114598;28;20203;-64
2023/05/05 03:01:35;;;;;;;10.00;6.35;;;9.60;98.10;;;;;;5114786;28;20180;-64
2023/05/05 03:04:06;;;;;;;5.65;4.70;;;9.50;98.20;;;;;;5114691;28;20268;-65
2023/05/05 03:06:40;;;;;;;6.35;4.70;;;9.50;98.40;;;;;;5114511;28;20293;-65
2023/05/05 03:09:12;;;;;;;7.63;5.40;;;9.50;98.60;;;;;;5114054;28;20299;-65
2023/05/05 03:11:46;;;;;;;6.55;5.10;;;9.40;98.90;;;;;;5113972;28;20206;-65
2023/05/05 03:14:15;;;;;;;9.32;5.78;;;9.40;99.30;;;;;;5114964;28;20206;-64
2023/05/05 03:16:43;;;;;;;10.70;5.43;;;9.40;99.60;;;;;;5113838;28;20247;-64
2023/05/05 03:19:12;;;;;;;5.78;4.88;;;9.40;99.60;;;;;;5114165;28;20200;-64
2023/05/05 03:21:39;;;;;;;5.78;4.72;;;9.30;99.90;;;;;;5114276;28;20219;-64
2023/05/05 03:24:15;;;;;;;6.95;5.32;;;9.40;99.90;;;;;;5113908;28;20210;-64
2023/05/05 03:26:42;;;;;;;6.30;5.43;;;9.30;99.90;;;;;;5113847;28;20644;-64
2023/05/05 03:29:09;;;;;;;8.18;5.85;;;9.30;99.90;;;;;;5114027;28;20200;-65
2023/05/05 03:31:35;;;;;;;8.05;5.50;;;9.30;99.90;;;;;;5113628;28;20696;-64
2023/05/05 03:34:02;;;;;;;6.28;4.65;;;9.30;99.90;;;;;;5114033;28;20210;-64
2023/05/05 03:36:29;;;;;;;6.65;5.93;;;9.20;99.90;;;;;;5113838;28;20234;-64
2023/05/05 03:38:56;;;;;;;8.45;5.35;;;9.20;99.90;;;;;;5113941;28;20223;-64
2023/05/05 03:41:25;;;;;;;8.00;5.78;;;9.20;99.90;;;;;;5113918;28;20207;-64
2023/05/05 03:43:52;;;;;;;7.35;5.35;;;9.20;99.90;;;;;;5114022;28;20200;-64
2023/05/05 03:46:19;;;;;;;8.55;5.47;;;9.20;99.90;;;;;;5113690;28;20224;-64
2023/05/05 03:48:46;;;;;;;5.40;4.90;;;9.10;99.90;;;;;;5113888;28;20207;-64
2023/05/05 03:51:12;;;;;;;9.15;5.20;;;9.10;99.90;;;;;;5113867;28;20195;-65
2023/05/05 03:53:39;;;;;;;5.85;5.32;;;9.10;99.90;;;;;;5113738;28;20207;-65
2023/05/05 03:56:06;;;;;;;9.65;5.78;;;9.10;99.90;;;;;;5113683;28;20219;-65
2023/05/05 03:58:34;;;;;;;7.28;5.38;;;9.10;99.90;;;;;;5113686;28;20227;-65
2023/05/05 04:01:02;;;;;;;10.68;6.55;;;9.00;99.90;;;;;;5113430;28;20199;-64
2023/05/05 04:03:29;;;;;;;6.85;5.57;;;9.00;99.90;;;;;;5113697;28;20298;-65
2023/05/05 04:05:56;;;;;;;9.00;5.75;;;9.10;99.90;;;;;;5113599;28;20246;-65
2023/05/05 04:11:39;;;;;;;9.23;5.65;;;9.00;99.90;;;;;;5090837;28;20615;-64
2023/05/05 04:14:06;;;;;;;7.60;5.75;;;9.10;99.90;;;;;;5090507;28;20215;-65
2023/05/05 04:16:32;;;;;;;6.85;5.80;;;9.10;99.90;;;;;;5070340;28;20201;-65
2023/05/05 04:18:59;;;;;;;8.48;6.18;;;9.10;99.90;;;;;;5070311;28;20209;-64
2023/05/05 04:21:26;;;;;;;10.02;5.68;;;9.10;99.90;;;;;;5070042;28;20675;-65
2023/05/05 04:23:53;;;;;;;7.72;5.43;;;9.10;99.90;;;;;;5069899;28;20211;-65
2023/05/05 04:26:19;;;;;;;7.35;5.88;;;9.20;99.90;;;;;;5103805;22;20224;-62
2023/05/05 04:28:47;;;;;;;9.98;5.53;;;9.20;99.90;;;;;;5071292;28;20551;-58
2023/05/05 04:31:14;;;;;;;8.52;5.95;;;9.20;99.90;;;;;;5072389;28;20258;-61
2023/05/05 04:33:41;;;;;;;9.05;5.55;;;9.20;99.90;;;;;;5070693;28;20559;-60
2023/05/05 04:36:08;;;;;;;6.78;6.05;;;9.30;99.90;;;;;;5072126;28;20217;-61
2023/05/05 04:38:35;;;;;;;14.73;5.85;;;9.30;99.90;;;;;;5079658;28;20207;-60
2023/05/05 04:41:05;;;;;;;7.68;6.00;;;9.40;99.90;;;;;;5081065;28;20197;-60
2023/05/05 04:43:31;;;;;;;7.90;5.35;;;9.50;99.90;;;;;;5079661;28;20201;-61
2023/05/05 04:45:59;;;;;;;6.93;6.10;;;9.70;99.90;;;;;;5082897;28;20221;-60
2023/05/05 04:48:26;;;;;;;8.95;6.07;;;10.00;99.90;;;;;;5077436;28;20202;-60
2023/05/05 04:50:53;;;;;;;8.48;5.22;;;10.20;99.90;;;;;;5071532;28;20217;-61
2023/05/05 04:53:20;;;;;;;7.80;5.03;;;10.20;99.90;;;;;;5070937;28;20315;-60
2023/05/05 04:55:46;;;;;;;6.37;5.67;;;10.30;99.90;;;;;;5070843;28;20470;-60
2023/05/05 04:58:13;;;;;;;7.30;5.00;;;10.50;99.90;;;;;;5070558;28;20447;-60
2023/05/05 05:00:40;;;;;;;6.70;5.07;;;10.70;99.90;;;;;;5072069;28;20450;-62
2023/05/05 05:03:09;;;;;;;8.30;5.43;;;11.00;99.90;;;;;;5071331;28;20447;-59
2023/05/05 05:05:36;;;;;;;6.77;4.70;;;11.40;99.90;;;;;;5070471;28;20463;-59
2023/05/05 05:08:02;;;;;;;6.40;4.37;;;11.70;99.00;;;;;;5070136;28;20444;-59
2023/05/05 05:10:29;;;;;;;6.47;5.70;;;12.00;97.70;;;;;;5069696;28;20482;-60
2023/05/05 05:12:56;;;;;;;8.33;4.87;;;12.20;96.40;;;;;;5069607;28;20956;-60
2023/05/05 05:15:23;;;;;;;6.00;4.93;;;12.50;95.50;;;;;;5069801;28;20467;-61
2023/05/05 05:17:49;;;;;;;5.50;4.77;;;12.70;94.10;;;;;;5070223;28;20458;-60
2023/05/05 05:20:18;;;;;;;9.23;5.20;;;12.80;92.70;;;;;;5070147;28;20447;-61
2023/05/05 05:22:45;;;;;;;8.37;4.57;;;13.00;91.70;;;;;;5061045;28;20444;-60
2023/05/05 05:25:12;;;;;;;7.20;4.63;;;13.20;90.60;;;;;;5059198;28;20476;-61
2023/05/05 05:27:38;;;;;;;7.73;5.20;;;13.40;89.10;;;;;;5060707;28;20447;-60
2023/05/05 05:30:06;;;;;;;10.30;4.90;;;13.50;86.30;;;;;;5058950;28;20472;-59
2023/05/05 05:32:32;;;;;;;12.17;5.50;;;13.40;83.10;;;;;;5059048;28;20961;-62
2023/05/05 05:34:59;;;;;;;5.70;4.73;;;13.20;82.10;;;;;;5057924;28;20460;-60
2023/05/05 05:37:30;;;;;;;6.13;5.53;;;12.90;82.80;;;;;;5057719;28;20453;-61
2023/05/05 05:39:57;;;;;;;7.53;5.40;;;12.70;83.50;;;;;;5056863;28;20934;-62
2023/05/05 05:42:23;;;;;;;8.03;5.23;;;12.70;84.30;;;;;;5056802;28;20451;-61
2023/05/05 05:44:50;;;;;;;6.43;4.90;;;12.70;84.30;;;;;;5056824;28;20467;-60
2023/05/05 05:47:17;;;;;;;8.47;4.97;;;12.70;84.20;;;;;;5057631;28;20810;-61
2023/05/05 05:49:44;;;;;;;9.20;5.70;;;12.80;83.50;;;;;;5058890;28;20440;-61
2023/05/05 05:52:10;;;;;;;6.73;5.20;;;12.70;82.40;;;;;;5056895;28;20458;-61
2023/05/05 05:54:38;;;;;;;8.00;5.40;;;12.60;82.00;;;;;;5058448;28;20462;-61
2023/05/05 05:57:05;;;;;;;9.07;5.43;;;12.50;81.90;;;;;;5057500;28;20448;-61
2023/05/05 05:59:32;;;;;;;7.40;5.70;;;12.40;82.20;;;;;;5057808;28;20497;-63
2023/05/05 06:01:59;;;;;;;6.30;5.70;;;12.40;83.10;;;;;;5058597;28;20448;-61
2023/05/05 06:04:26;;;;;;;8.23;5.10;;;12.50;83.30;;;;;;5057602;28;20452;-61
2023/05/05 06:06:52;;;;;;;6.90;5.10;;;12.70;82.60;;;;;;5056180;28;20440;-60
2023/05/05 06:09:19;;;;;;;5.60;5.03;;;13.00;81.00;;;;;;5056456;28;20440;-60
2023/05/05 06:11:47;;;;;;;5.67;4.87;;;13.30;78.80;;;;;;5057451;28;20938;-63
2023/05/05 06:14:14;;;;;;;11.33;5.83;;;13.50;76.50;;;;;;5056386;28;20452;-63
2023/05/05 06:16:41;;;;;;;6.10;5.50;;;13.70;74.80;;;;;;5056092;28;20470;-64
2023/05/05 06:19:09;;;;;;;8.67;4.90;;;13.80;73.40;;;;;;5055859;28;20450;-62
2023/05/05 06:21:36;;;;;;;10.43;6.27;;;13.90;72.40;;;;;;5056127;28;20450;-62
2023/05/05 06:24:03;;;;;;;6.50;4.83;;;14.00;71.70;;;;;;5056296;28;20448;-64
2023/05/05 06:26:31;;;;;;;5.80;5.00;;;14.10;70.70;;;;;;5055856;28;20487;-63
2023/05/05 06:28:59;;;;;;;5.37;4.60;;;14.20;69.60;;;;;;5055883;28;20453;-62
2023/05/05 06:31:25;;;;;;;8.33;5.43;;;14.20;68.80;;;;;;5056856;28;20487;-63
2023/05/05 06:33:52;;;;;;;7.90;5.67;;;14.30;68.30;;;;;;5054935;28;20463;-63
2023/05/05 06:36:19;;;;;;;10.37;5.57;;;14.20;67.70;;;;;;5055627;28;20460;-63
2023/05/05 06:38:46;;;;;;;6.03;5.43;;;14.20;67.60;;;;;;5056648;28;20816;-65
2023/05/05 06:41:13;;;;;;;6.70;5.93;;;14.20;67.50;;;;;;5056698;28;20949;-63
2023/05/05 06:43:41;;;;;;;8.03;5.33;;;14.10;67.40;;;;;;5056516;28;20456;-64
2023/05/05 06:46:09;;;;;;;7.37;6.03;;;14.00;67.40;;;;;;5056396;28;20472;-64
2023/05/05 06:48:36;;;;;;;6.87;5.20;;;14.00;67.70;;;;;;5056198;28;20540;-64
2023/05/05 06:51:03;;;;;;;6.00;5.40;;;14.00;67.80;;;;;;5055521;28;20499;-62
2023/05/05 06:53:30;;;;;;;7.80;5.83;;;13.90;67.80;;;;;;5056895;28;20435;-64
2023/05/05 06:55:57;;;;;;;8.30;5.47;;;14.00;68.00;;;;;;5056878;28;20471;-63
2023/05/05 06:58:24;;;;;;;7.57;6.27;;;14.10;67.70;;;;;;5056062;28;20448;-64
2023/05/05 07:00:50;;;;;;;7.40;5.30;;;14.20;67.10;;;;;;5056784;28;20463;-63
2023/05/05 07:03:18;;;;;;;8.70;6.17;;;14.20;66.80;;;;;;5056049;28;20803;-63
2023/05/05 07:05:45;;;;;;;7.10;6.13;;;14.10;67.10;;;;;;5055480;28;20475;-64
2023/05/05 07:08:12;;;;;;;9.63;5.83;;;14.00;67.30;;;;;;5055316;28;20440;-64
2023/05/05 07:10:39;;;;;;;8.13;6.10;;;13.90;67.70;;;;;;5056171;28;20487;-62
2023/05/05 07:13:06;;;;;;;6.93;5.80;;;13.90;68.00;;;;;;5055309;28;21034;-63
2023/05/05 07:15:33;;;;;;;9.37;6.33;;;14.00;68.10;;;;;;5056074;28;20514;-64
2023/05/05 07:18:00;;;;;;;7.90;5.80;;;14.00;68.00;;;;;;5055423;28;20443;-64
2023/05/05 07:20:28;;;;;;;5.73;5.13;;;14.10;68.10;;;;;;5056572;28;20440;-63
2023/05/05 07:22:55;;;;;;;9.80;5.80;;;14.30;67.60;;;;;;5055529;28;20447;-64
2023/05/05 07:25:22;;;;;;;9.50;6.07;;;14.60;66.80;;;;;;5055090;28;20480;-64
2023/05/05 07:27:48;;;;;;;9.07;6.30;;;14.90;66.00;;;;;;5056231;28;20806;-63
2023/05/05 07:30:15;;;;;;;6.80;5.70;;;15.10;65.00;;;;;;5055397;28;20455;-64
2023/05/05 07:32:42;;;;;;;7.63;5.90;;;15.40;64.30;;;;;;5057080;28;20514;-63
2023/05/05 07:35:09;;;;;;;7.00;6.03;;;15.60;63.40;;;;;;5057923;28;20468;-63
2023/05/05 07:37:37;;;;;;;7.23;6.20;;;15.70;62.90;;;;;;5061024;28;20462;-63
2023/05/05 07:40:05;;;;;;;7.40;6.10;;;15.80;62.20;;;;;;5064523;28;20440;-63
2023/05/05 07:42:32;;;;;;;9.83;6.50;;;15.70;62.30;;;;;;5065861;28;20436;-64
2023/05/05 07:44:58;;;;;;;9.07;6.33;;;15.70;62.40;;;;;;5059800;28;20464;-63
2023/05/05 07:47:25;;;;;;;9.33;6.50;;;15.80;62.10;;;;;;5058452;28;20452;-63
2023/05/05 07:49:52;;;;;;;7.93;6.10;;;15.90;61.50;;;;;;5057252;28;20448;-62
2023/05/05 07:52:19;;;;;;;7.90;6.33;;;16.00;60.90;;;;;;5056301;28;20487;-62
2023/05/05 07:54:47;;;;;;;7.30;6.13;;;15.90;60.60;;;;;;5055547;28;20468;-62
2023/05/05 07:57:14;;;;;;;6.50;5.80;;;15.90;60.30;;;;;;5054898;28;20950;-64
2023/05/05 07:59:42;;;;;;;10.23;6.43;;;15.90;60.30;;;;;;5058735;28;20446;-65
2023/05/05 08:02:11;;;;;;;7.97;5.93;;;16.00;60.10;;;;;;5056306;28;20440;-62
2023/05/05 08:04:38;;;;;;;6.07;5.27;;;16.10;59.80;;;;;;5055097;28;20487;-62
2023/05/05 08:07:05;;;;;;;6.17;5.40;;;16.30;59.60;;;;;;5055341;28;20844;-64
2023/05/05 08:09:31;;;;;;;9.73;6.70;;;16.50;59.10;;;;;;5056093;28;20441;-65
2023/05/05 08:12:01;;;;;;;8.00;6.20;;;16.70;58.70;;;;;;5055360;28;20471;-64
2023/05/05 08:14:27;;;;;;;7.53;5.47;;;16.90;58.20;;;;;;5054360;28;20482;-64
2023/05/05 08:16:54;;;;;;;8.07;6.00;;;17.10;57.70;;;;;;5054602;28;20448;-62
2023/05/05 08:19:23;;;;;;;7.93;6.30;;;17.40;57.30;;;;;;5055244;28;20455;-63
2023/05/05 08:21:50;;;;;;;10.00;6.87;;;17.50;56.80;;;;;;5055735;28;20440;-60
2023/05/05 08:24:16;;;;;;;8.77;6.07;;;17.60;56.30;;;;;;5055527;28;20806;-61
2023/05/05 08:26:43;;;;;;;10.23;6.77;;;17.60;56.00;;;;;;5055948;28;20495;-61
2023/05/05 08:29:11;;;;;;;10.23;6.63;;;17.40;56.10;;;;;;5055488;28;20969;-62
2023/05/05 08:31:38;;;;;;;7.63;5.87;;;17.30;56.20;;;;;;5055342;28;20475;-61
2023/05/05 08:34:05;;;;;;;7.80;6.43;;;17.30;56.30;;;;;;5055813;28;20805;-61
2023/05/05 08:36:32;;;;;;;6.57;5.70;;;17.30;56.20;;;;;;5056583;28;20464;-62
2023/05/05 08:39:00;;;;;;;8.00;5.90;;;17.30;56.10;;;;;;5056030;28;20448;-60
2023/05/05 08:41:28;;;;;;;7.13;5.50;;;17.50;55.90;;;;;;5056318;28;20862;-62
2023/05/05 08:43:55;;;;;;;7.07;6.40;;;17.60;55.60;;;;;;5055132;28;20531;-62
2023/05/05 08:46:23;;;;;;;11.60;5.90;;;17.80;55.10;;;;;;5054010;28;20981;-61
2023/05/05 08:48:54;;;;;;;8.00;5.93;;;17.90;54.60;;;;;;5055102;28;20440;-60
2023/05/05 08:51:22;;;;;;;12.73;6.50;;;18.00;54.40;;;;;;5055173;28;20464;-62
2023/05/05 08:53:57;;;;;;;9.70;5.77;;;18.00;54.30;;;;;;5055764;28;20938;-62
2023/05/05 08:56:27;;;;;;;8.70;5.90;;;18.00;54.30;;;;;;5055433;28;20463;-60
2023/05/05 08:58:56;;;;;;;8.80;5.80;;;18.10;54.30;;;;;;5061146;28;20535;-62
2023/05/05 09:01:24;;;;;;;8.47;5.80;;;18.20;54.10;;;;;;5062074;28;20467;-62
2023/05/05 09:03:52;;;;;;;12.10;6.13;;;18.30;53.90;;;;;;5062799;28;20814;-63
2023/05/05 09:06:21;;;;;;;8.37;6.87;;;18.40;54.10;;;;;;5062740;28;20486;-63
2023/05/05 09:08:48;;;;;;;8.37;7.17;;;18.60;53.20;;;;;;5062149;28;20440;-63
2023/05/05 09:11:15;;;;;;;8.30;6.53;;;18.70;52.90;;;;;;5060092;28;20486;-62
2023/05/05 09:13:42;;;;;;;11.23;6.60;;;18.70;52.80;;;;;;5060383;28;20447;-63
2023/05/05 09:16:09;;;;;;;7.27;5.97;;;18.70;52.70;;;;;;5060763;28;20522;-63
2023/05/05 09:18:39;;;;;;;7.90;5.90;;;18.80;52.60;;;;;;5060970;28;20444;-66
2023/05/05 09:21:19;;;;;;;11.93;6.90;;;18.80;52.40;;;;;;5060250;28;20436;-62
2023/05/05 09:24:04;;;;;;;9.03;7.30;;;18.90;52.40;;;;;;5059267;28;20482;-64
2023/05/05 09:26:33;;;;;;;9.60;6.67;;;18.90;52.30;;;;;;5058744;28;20479;-62
2023/05/05 09:29:00;;;;;;;9.53;7.07;;;19.00;52.10;;;;;;5059858;28;20807;-62
2023/05/05 09:31:27;;;;;;;11.40;7.43;;;19.00;52.00;;;;;;5059800;28;20484;-63
2023/05/05 09:33:59;;;;;;;8.30;6.40;;;19.10;52.00;;;;;;5058722;28;20440;-64
2023/05/05 09:36:41;;;;;;;7.60;6.07;;;19.20;51.80;;;;;;5059948;28;20464;-64
2023/05/05 09:39:08;;;;;;;9.50;6.53;;;19.50;51.50;;;;;;5060291;28;20493;-62
2023/05/05 09:41:38;;;;;;;8.07;5.73;;;19.60;51.10;;;;;;5058310;28;20818;-63
2023/05/05 09:44:05;;;;;;;10.93;7.07;;;19.80;50.90;;;;;;5058026;28;20443;-64
2023/05/05 09:46:32;;;;;;;9.47;7.10;;;20.20;50.70;;;;;;5057566;28;20521;-63
2023/05/05 09:49:14;;;;;;;8.50;6.90;;;20.40;49.90;;;;;;5057702;28;21018;-63
2023/05/05 09:51:41;;;;;;;9.53;6.93;;;20.50;49.60;;;;;;5058237;28;20643;-63
2023/05/05 09:54:08;;;;;;;9.87;6.90;;;20.60;49.10;;;;;;5058315;28;20445;-63
2023/05/05 09:56:39;;;;;;;10.23;7.87;;;20.50;48.90;;;;;;5059013;28;20477;-63
2023/05/05 09:59:09;;;;;;;11.33;6.77;;;20.60;49.20;;;;;;5059196;28;20453;-64
2023/05/05 10:01:35;;;;;;;7.80;7.00;;;20.70;48.90;;;;;;5059434;28;20806;-63
2023/05/05 10:04:02;;;;;;;8.57;6.60;;;20.70;48.80;;;;;;5057854;28;20450;-65
2023/05/05 10:06:42;;;;;;;8.60;6.83;;;20.60;48.70;;;;;;5058312;28;20472;-63
2023/05/05 10:09:09;;;;;;;8.03;6.87;;;20.70;48.80;;;;;;5057484;28;20762;-63
2023/05/05 10:11:36;;;;;;;8.13;6.87;;;20.80;48.70;;;;;;5057051;28;20485;-63
2023/05/05 10:14:06;;;;;;;8.70;6.37;;;20.90;48.60;;;;;;5057528;28;20450;-64
2023/05/05 10:16:33;;;;;;;9.53;7.40;;;21.00;48.40;;;;;;5058905;28;20558;-63
2023/05/05 10:19:03;;;;;;;7.90;6.77;;;21.20;48.30;;;;;;5057281;28;20971;-64
2023/05/05 10:21:33;;;;;;;8.63;6.23;;;21.20;47.80;;;;;;5058686;28;20518;-62
2023/05/05 10:24:06;;;;;;;6.77;6.10;;;21.20;47.60;;;;;;5058856;28;20917;-64
2023/05/05 10:26:38;;;;;;;11.20;6.80;;;21.10;47.50;;;;;;5072204;22;20504;-65
2023/05/05 10:29:09;;;;;;;9.83;6.90;;;21.10;47.70;;;;;;5055730;28;20436;-67
2023/05/05 10:31:41;;;;;;;10.83;7.70;;;21.00;47.90;;;;;;5054925;28;20486;-67
2023/05/05 10:34:11;;;;;;;7.50;6.63;;;21.00;47.90;;;;;;5053977;28;20921;-67
2023/05/05 10:36:38;;;;;;;8.80;6.90;;;21.00;47.80;;;;;;5054604;28;20481;-67
2023/05/05 10:39:08;;;;;;;6.93;6.27;;;20.90;48.30;;;;;;5055146;28;20960;-68
2023/05/05 10:41:35;;;;;;;6.30;5.70;;;21.00;47.50;;;;;;5054941;28;20458;-67
2023/05/05 10:44:03;;;;;;;8.33;6.40;;;21.20;47.30;;;;;;5054726;28;20856;-67
2023/05/05 10:46:30;;;;;;;6.87;6.20;;;21.50;47.00;;;;;;5054204;28;20475;-68
2023/05/05 10:49:11;;;;;;;8.43;6.63;;;22.00;46.60;;;;;;5054680;28;20451;-67
2023/05/05 10:51:46;;;;;;;7.77;6.53;;;22.40;46.00;;;;;;5054789;28;20830;-67
2023/05/05 10:54:21;;;;;;;7.87;7.13;;;22.80;45.30;;;;;;5054540;28;20434;-68
2023/05/05 10:56:49;;;;;;;7.10;6.40;;;22.80;45.00;;;;;;5054884;28;20997;-67
2023/05/05 10:59:42;;;;;;;8.00;7.20;;;22.60;45.20;;;;;;5055574;28;20530;-65
2023/05/05 11:02:19;;;;;;;9.20;6.60;;;22.60;45.50;;;;;;5053802;28;20922;-67
2023/05/05 11:05:07;;;;;;;7.90;7.10;;;22.60;45.50;;;;;;5054590;28;20428;-67
2023/05/05 11:07:34;;;;;;;7.33;6.63;;;22.70;45.50;;;;;;5054423;28;20451;-67
2023/05/05 11:10:04;;;;;;;9.43;6.27;;;22.70;45.60;;;;;;5053700;28;20436;-67
2023/05/05 11:12:32;;;;;;;7.43;6.77;;;22.70;45.50;;;;;;5053915;28;20547;-68
2023/05/05 11:15:36;;;;;;;7.93;7.07;;;22.70;45.60;;;;;;5053801;28;20447;-66
2023/05/05 11:18:03;;;;;;;9.03;7.73;;;22.70;45.80;;;;;;5054977;28;20518;-66
2023/05/05 11:21:06;;;;;;;9.90;7.23;;;22.70;45.70;;;;;;5053669;28;20446;-65
2023/05/05 11:23:33;;;;;;;7.47;6.67;;;22.70;45.90;;;;;;5053949;28;20431;-67
2023/05/05 11:26:01;;;;;;;11.53;7.23;;;22.70;46.00;;;;;;5053496;28;20475;-67
2023/05/05 11:28:29;;;;;;;10.83;8.03;;;22.70;46.10;;;;;;5054168;28;20465;-66
2023/05/05 11:31:16;;;;;;;7.30;6.60;;;22.50;46.20;;;;;;5053438;28;20479;-67
2023/05/05 11:33:43;;;;;;;8.87;7.17;;;22.20;46.30;;;;;;5053637;28;21000;-68
2023/05/05 11:36:11;;;;;;;9.90;7.00;;;22.00;46.70;;;;;;5053541;28;21009;-67
2023/05/05 11:39:04;;;;;;;9.60;8.40;;;21.80;47.20;;;;;;5053804;28;20452;-67
2023/05/05 11:41:57;;;;;;;8.60;7.77;;;21.60;47.80;;;;;;5045212;28;20450;-66
2023/05/05 11:44:31;;;;;;;8.17;7.33;;;21.30;48.70;;;;;;5053420;28;20442;-67
2023/05/05 11:47:27;;;;;;;11.83;7.77;;;21.20;50.50;;;;;;5053083;28;20465;-68
2023/05/05 11:49:54;;;;;;;11.43;8.03;;;21.20;52.90;;;;;;5054168;28;20441;-64
2023/05/05 11:52:23;;;;;;;8.80;7.90;;;21.30;54.30;;;;;;5053620;28;20565;-67
2023/05/05 11:54:50;;;;;;;9.60;8.03;;;21.50;55.50;;;;;;5053424;28;20460;-67
2023/05/05 11:57:20;;;;;;;11.50;9.60;;;21.50;56.00;;;;;;5053446;28;20439;-67
2023/05/05 11:59:53;;;;;;;8.30;7.40;;;21.70;57.00;;;;;;5053578;28;20412;-68
2023/05/05 12:02:21;;;;;;;11.90;8.00;;;22.20;57.70;;;;;;5053612;28;20943;-67
2023/05/05 12:04:48;;;;;;;9.50;7.57;;;22.60;57.40;;;;;;5053610;28;20458;-66
2023/05/05 12:07:16;;;;;;;8.90;8.07;;;23.10;56.70;;;;;;5053286;28;21005;-67
2023/05/05 12:09:44;;;;;;;9.03;8.23;;;23.40;55.50;;;;;;5053027;28;20448;-67
2023/05/05 12:12:11;;;;;;;8.70;7.90;;;23.50;54.30;;;;;;5054037;28;20533;-67
2023/05/05 12:14:47;;;;;;;10.93;7.50;;;23.60;53.20;;;;;;5053070;28;20566;-68
2023/05/05 12:17:13;;;;;;;9.67;8.77;;;23.80;52.50;;;;;;5053186;28;20550;-66
2023/05/05 12:19:48;;;;;;;8.10;7.30;;;24.20;51.70;;;;;;5053140;28;20450;-67
2023/05/05 12:22:20;;;;;;;10.10;7.67;;;24.70;50.40;;;;;;5053475;28;20445;-67
2023/05/05 12:24:54;;;;;;;16.33;14.50;;;25.10;49.20;;;;;;5053152;28;20445;-67
2023/05/05 12:27:21;;;;;;;14.93;13.37;;;25.10;48.50;;;;;;5053450;28;20883;-67
2023/05/05 12:29:49;;;;;;;13.90;10.13;;;24.70;48.40;;;;;;5053476;28;20447;-66
2023/05/05 12:32:21;;;;;;;10.50;7.80;;;24.40;48.50;;;;;;5054661;28;20493;-67
2023/05/05 12:34:48;;;;;;;10.20;8.30;;;23.90;48.80;;;;;;5057354;28;20454;-67
2023/05/05 12:37:17;;;;;;;11.70;7.60;;;23.80;49.10;;;;;;5057296;28;20481;-67
2023/05/05 12:39:44;;;;;;;16.03;8.90;;;23.90;49.00;;;;;;5057412;28;20457;-68
2023/05/05 12:42:11;;;;;;;10.17;7.50;;;23.80;48.70;;;;;;5057342;28;20439;-69
2023/05/05 12:44:39;;;;;;;10.33;7.77;;;23.80;48.70;;;;;;5057052;28;20806;-66
2023/05/05 12:47:07;;;;;;;8.80;7.33;;;23.60;48.60;;;;;;5056406;28;20996;-68
2023/05/05 12:49:45;;;;;;;9.17;7.30;;;23.50;48.80;;;;;;5056920;28;20461;-68
2023/05/05 12:52:13;;;;;;;9.30;7.97;;;23.40;48.90;;;;;;5057039;28;22330;-69
2023/05/05 12:54:54;;;;;;;7.97;6.90;;;23.20;49.00;;;;;;5056584;28;20830;-67
2023/05/05 12:57:21;;;;;;;9.13;7.90;;;23.00;49.10;;;;;;5057009;28;20444;-68
2023/05/05 12:59:48;;;;;;;11.20;8.30;;;23.00;49.30;;;;;;5056772;28;20447;-71
2023/05/05 13:02:17;;;;;;;8.97;8.07;;;22.90;49.20;;;;;;5057543;28;20441;-68